Time;durP1;ratioP1;P1;durP2;ratioP2;P2;SDS_P1;SDS_P2;PMS_P1;PMS_P2;Temp;Humidity;BMP_temperature;BMP_pressure;BME280_temperature;BME280_humidity;BME280_pressure;Samples;Min_cycle;Max_cycle;Signal;HPM_P1;HPM_P2
2023/09/30 00:00:57;;;;;;;;;;;14.10;99.90;;;;;;5114227;28;19931;-41
2023/09/30 00:03:23;;;;;;;;;;;14.10;99.90;;;;;;5114918;28;19928;-42
2023/09/30 00:05:49;;;;;;;;;;;14.10;99.90;;;;;;5114443;28;19982;-41
2023/09/30 00:08:15;;;;;;;;;;;14.10;99.90;;;;;;5114509;28;20021;-41
2023/09/30 00:10:40;;;;;;;;;;;14.10;99.90;;;;;;5114466;28;19924;-41
2023/09/30 00:13:06;;;;;;;;;;;14.00;99.90;;;;;;5113212;28;19924;-41
2023/09/30 00:15:35;;;;;;;;;;;14.00;99.90;;;;;;5114177;28;19924;-41
2023/09/30 00:18:01;;;;;;;;;;;14.00;99.90;;;;;;5114130;28;20359;-41
2023/09/30 00:20:27;;;;;;;;;;;14.00;99.90;;;;;;5114399;28;19924;-41
2023/09/30 00:22:53;;;;;;;;;;;14.00;99.90;;;;;;5113559;28;19973;-41
2023/09/30 00:25:20;;;;;;;;;;;14.00;99.90;;;;;;5114270;28;19929;-41
2023/09/30 00:27:49;;;;;;;;;;;14.00;99.90;;;;;;5114117;28;20362;-42
2023/09/30 00:30:15;;;;;;;;;;;14.00;99.90;;;;;;5114075;28;19950;-42
2023/09/30 00:32:41;;;;;;;;;;;14.00;99.90;;;;;;5114269;28;19927;-42
2023/09/30 00:35:11;;;;;;;;;;;13.90;99.90;;;;;;5114270;28;19923;-41
2023/09/30 00:37:40;;;;;;;;;;;13.90;99.90;;;;;;5113263;28;20392;-41
2023/09/30 00:40:06;;;;;;;;;;;13.90;99.90;;;;;;5114357;28;19934;-41
2023/09/30 00:42:31;;;;;;;;;;;13.90;99.90;;;;;;5114163;28;19923;-43
2023/09/30 00:44:57;;;;;;;;;;;13.90;99.90;;;;;;5113935;28;19993;-42
2023/09/30 00:47:23;;;;;;;;;;;13.90;99.90;;;;;;5114114;28;19923;-41
2023/09/30 00:49:50;;;;;;;;;;;13.90;99.90;;;;;;5114223;28;20267;-41
2023/09/30 00:52:16;;;;;;;;;;;13.90;99.90;;;;;;5114080;28;19931;-41
2023/09/30 00:54:43;;;;;;;;;;;13.90;99.90;;;;;;5114065;28;19930;-42
2023/09/30 00:57:09;;;;;;;;;;;13.90;99.90;;;;;;5114388;28;19979;-41
2023/09/30 00:59:35;;;;;;;;;;;13.80;99.90;;;;;;5116540;28;19935;-41
2023/09/30 01:02:01;;;;;;;;;;;13.80;99.90;;;;;;5117857;28;19924;-41
2023/09/30 01:04:27;;;;;;;;;;;13.80;99.90;;;;;;5117208;28;19931;-41
2023/09/30 01:06:52;;;;;;;;;;;13.80;99.90;;;;;;5117625;28;19923;-41
2023/09/30 01:09:19;;;;;;;;;;;13.80;99.90;;;;;;5117641;28;19977;-42
2023/09/30 01:11:44;;;;;;;;;;;13.80;99.90;;;;;;5117507;28;19924;-41
2023/09/30 01:14:30;;;;;;;;;;;13.80;99.90;;;;;;5117520;28;19931;-41
2023/09/30 01:16:55;;;;;;;;;;;13.80;99.90;;;;;;5117579;28;20297;-41
2023/09/30 01:19:24;;;;;;;;;;;13.80;99.90;;;;;;5117498;28;19977;-41
2023/09/30 01:21:58;;;;;;;;;;;13.80;99.90;;;;;;5117577;27;19924;-41
2023/09/30 01:24:24;;;;;;;;;;;13.80;99.90;;;;;;5117273;28;19924;-42
2023/09/30 01:26:50;;;;;;;;;;;13.70;99.90;;;;;;5117482;28;20069;-41
2023/09/30 01:29:17;;;;;;;;;;;13.70;99.90;;;;;;5116420;28;19976;-41
2023/09/30 01:31:42;;;;;;;;;;;13.70;99.90;;;;;;5117233;28;19924;-42
2023/09/30 01:34:08;;;;;;;;;;;13.70;99.90;;;;;;5117095;28;19931;-41
2023/09/30 01:36:33;;;;;;;;;;;13.70;99.90;;;;;;5116967;28;20363;-41
2023/09/30 01:39:01;;;;;;;;;;;13.70;99.90;;;;;;5115801;28;19924;-41
2023/09/30 01:41:27;;;;;;;;;;;13.70;99.90;;;;;;5116840;28;20439;-41
2023/09/30 01:43:53;;;;;;;;;;;13.70;99.90;;;;;;5116989;28;19923;-42
2023/09/30 01:46:19;;;;;;;;;;;13.70;99.90;;;;;;5116849;27;19924;-41
2023/09/30 01:48:44;;;;;;;;;;;13.70;99.90;;;;;;5116879;28;20018;-41
2023/09/30 01:51:10;;;;;;;;;;;13.70;99.90;;;;;;5116850;28;19986;-42
2023/09/30 01:53:36;;;;;;;;;;;13.70;99.90;;;;;;5116765;28;19928;-42
2023/09/30 01:56:02;;;;;;;;;;;13.70;99.90;;;;;;5116723;28;19923;-42
2023/09/30 01:58:28;;;;;;;;;;;13.70;99.90;;;;;;5116719;28;19976;-41
2023/09/30 02:00:53;;;;;;;;;;;13.70;99.90;;;;;;5116642;28;19924;-41
2023/09/30 02:03:19;;;;;;;;;;;13.70;99.90;;;;;;5116649;28;19924;-42
2023/09/30 02:05:44;;;;;;;;;;;13.70;99.90;;;;;;5116517;28;19930;-41
2023/09/30 02:08:10;;;;;;;;;;;13.70;99.90;;;;;;5116037;28;19930;-42
2023/09/30 02:10:35;;;;;;;;;;;13.70;99.90;;;;;;5116525;28;19989;-41
2023/09/30 02:13:01;;;;;;;;;;;13.70;99.90;;;;;;5116600;28;19970;-42
2023/09/30 02:15:27;;;;;;;;;;;13.70;99.90;;;;;;5116326;28;19923;-42
2023/09/30 02:17:53;;;;;;;;;;;13.70;99.90;;;;;;5116394;28;19930;-41
2023/09/30 02:20:21;;;;;;;;;;;13.70;99.90;;;;;;5116173;28;19930;-41
2023/09/30 02:22:47;;;;;;;;;;;13.70;99.90;;;;;;5116076;28;19924;-41
2023/09/30 02:25:13;;;;;;;;;;;13.70;99.90;;;;;;5115928;28;20026;-41
2023/09/30 02:27:41;;;;;;;;;;;13.70;99.90;;;;;;5116389;28;19992;-41
2023/09/30 02:30:07;;;;;;;;;;;13.70;99.90;;;;;;5116202;28;19976;-41
2023/09/30 02:32:33;;;;;;;;;;;13.70;99.90;;;;;;5115962;28;19924;-41
2023/09/30 02:34:59;;;;;;;;;;;13.70;99.90;;;;;;5115980;28;20290;-41
2023/09/30 02:37:25;;;;;;;;;;;13.70;99.90;;;;;;5115738;28;19947;-42
2023/09/30 02:39:51;;;;;;;;;;;13.70;99.90;;;;;;5116187;28;20382;-41
2023/09/30 02:42:16;;;;;;;;;;;13.70;99.90;;;;;;5115941;28;19930;-42
2023/09/30 02:44:42;;;;;;;;;;;13.70;99.90;;;;;;5115767;28;19924;-41
2023/09/30 02:47:08;;;;;;;;;;;13.60;99.90;;;;;;5115761;28;19978;-41
2023/09/30 02:49:34;;;;;;;;;;;13.60;99.90;;;;;;5115883;28;19971;-41
2023/09/30 02:51:59;;;;;;;;;;;13.70;99.90;;;;;;5115215;28;20409;-42
2023/09/30 02:54:25;;;;;;;;;;;13.70;99.90;;;;;;5115265;28;19928;-41
2023/09/30 02:56:52;;;;;;;;;;;13.60;99.90;;;;;;5115411;28;19923;-41
2023/09/30 02:59:18;;;;;;;;;;;13.60;99.90;;;;;;5114264;28;19932;-41
2023/09/30 03:01:44;;;;;;;;;;;13.60;99.90;;;;;;5115300;28;20397;-43
2023/09/30 03:04:12;;;;;;;;;;;13.60;99.90;;;;;;5115309;28;19924;-41
2023/09/30 03:06:38;;;;;;;;;;;13.60;99.90;;;;;;5115124;28;19924;-41
2023/09/30 03:09:04;;;;;;;;;;;13.60;99.90;;;;;;5114958;28;20374;-41
2023/09/30 03:11:31;;;;;;;;;;;13.60;99.90;;;;;;5115286;28;19924;-41
2023/09/30 03:13:57;;;;;;;;;;;13.60;99.90;;;;;;5115169;28;20036;-42
2023/09/30 03:16:24;;;;;;;;;;;13.60;99.90;;;;;;5114552;28;19931;-41
2023/09/30 03:18:50;;;;;;;;;;;13.60;99.90;;;;;;5115228;28;20295;-43
2023/09/30 03:21:16;;;;;;;;;;;13.60;99.90;;;;;;5114299;28;19928;-41
2023/09/30 03:23:42;;;;;;;;;;;13.60;99.90;;;;;;5114864;28;19931;-41
2023/09/30 03:26:09;;;;;;;;;;;13.60;99.90;;;;;;5115001;28;19977;-41
2023/09/30 03:28:36;;;;;;;;;;;13.60;99.90;;;;;;5115016;28;19928;-41
2023/09/30 03:31:04;;;;;;;;;;;13.60;99.90;;;;;;5115156;28;20344;-41
2023/09/30 03:33:33;;;;;;;;;;;13.60;99.90;;;;;;5114795;28;20462;-41
2023/09/30 03:35:59;;;;;;;;;;;13.60;99.90;;;;;;5114885;28;19927;-41
2023/09/30 03:38:28;;;;;;;;;;;13.50;99.90;;;;;;5114016;28;19924;-41
2023/09/30 03:40:55;;;;;;;;;;;13.50;99.90;;;;;;5114826;28;19923;-41
2023/09/30 03:43:21;;;;;;;;;;;13.50;99.90;;;;;;5114734;28;19930;-41
2023/09/30 03:45:46;;;;;;;;;;;13.50;99.90;;;;;;5114621;28;20416;-41
2023/09/30 03:48:12;;;;;;;;;;;13.50;99.90;;;;;;5114655;28;20014;-42
2023/09/30 03:50:38;;;;;;;;;;;13.50;99.90;;;;;;5114649;28;19984;-41
2023/09/30 03:53:04;;;;;;;;;;;13.50;99.90;;;;;;5114317;28;19982;-41
2023/09/30 03:55:31;;;;;;;;;;;13.50;99.90;;;;;;5113394;28;19923;-41
2023/09/30 03:57:57;;;;;;;;;;;13.50;99.90;;;;;;5114618;28;19924;-41
2023/09/30 04:00:24;;;;;;;;;;;13.50;99.90;;;;;;5114422;28;19991;-41
2023/09/30 04:02:53;;;;;;;;;;;13.50;99.90;;;;;;5114538;28;19930;-41
2023/09/30 04:05:19;;;;;;;;;;;13.50;99.90;;;;;;5114436;28;19931;-41
2023/09/30 04:07:45;;;;;;;;;;;13.50;99.90;;;;;;5114453;28;19923;-41
2023/09/30 04:10:10;;;;;;;;;;;13.50;99.90;;;;;;5114377;28;19993;-41
2023/09/30 04:12:36;;;;;;;;;;;13.50;99.90;;;;;;5114557;28;19924;-41
2023/09/30 04:15:03;;;;;;;;;;;13.50;99.90;;;;;;5114278;28;20344;-41
2023/09/30 04:17:29;;;;;;;;;;;13.50;99.90;;;;;;5114325;28;19966;-42
2023/09/30 04:19:54;;;;;;;;;;;13.50;99.90;;;;;;5114170;28;20362;-41
2023/09/30 04:22:21;;;;;;;;;;;13.50;99.90;;;;;;5114378;28;20339;-41
2023/09/30 04:24:49;;;;;;;;;;;13.50;99.90;;;;;;5114531;28;19924;-41
2023/09/30 04:27:14;;;;;;;;;;;13.50;99.90;;;;;;5114669;28;19928;-41
2023/09/30 04:29:41;;;;;;;;;;;13.50;99.90;;;;;;5114341;28;19924;-41
2023/09/30 04:32:07;;;;;;;;;;;13.50;99.90;;;;;;5116075;28;19924;-44
2023/09/30 04:34:32;;;;;;;;;;;13.50;99.90;;;;;;5118055;28;19924;-41
2023/09/30 04:36:59;;;;;;;;;;;13.50;99.90;;;;;;5118364;28;19924;-42
2023/09/30 04:39:25;;;;;;;;;;;13.50;99.90;;;;;;5118294;28;19924;-41
2023/09/30 04:41:50;;;;;;;;;;;13.50;99.90;;;;;;5118223;28;19923;-41
2023/09/30 04:44:16;;;;;;;;;;;13.50;99.90;;;;;;5118253;27;19924;-42
2023/09/30 04:46:45;;;;;;;;;;;13.50;99.90;;;;;;5116998;28;19946;-41
2023/09/30 04:49:14;;;;;;;;;;;13.50;99.90;;;;;;5116887;28;19923;-42
2023/09/30 04:51:40;;;;;;;;;;;13.50;99.90;;;;;;5118127;28;19923;-42
2023/09/30 04:54:08;;;;;;;;;;;13.50;99.90;;;;;;5118036;28;19976;-41
2023/09/30 04:56:35;;;;;;;;;;;13.50;99.90;;;;;;5117685;27;20064;-41
2023/09/30 04:59:01;;;;;;;;;;;13.50;99.90;;;;;;5116556;28;20023;-41
2023/09/30 05:01:26;;;;;;;;;;;13.50;99.90;;;;;;5117623;28;19959;-41
2023/09/30 05:03:52;;;;;;;;;;;13.40;99.90;;;;;;5117861;28;19927;-42
2023/09/30 05:06:17;;;;;;;;;;;13.40;99.90;;;;;;5117783;27;19962;-41
2023/09/30 05:08:43;;;;;;;;;;;13.40;99.90;;;;;;5116669;28;19934;-41
2023/09/30 05:11:08;;;;;;;;;;;13.40;99.90;;;;;;5117541;28;19923;-41
2023/09/30 05:13:34;;;;;;;;;;;13.40;99.90;;;;;;5117613;28;19977;-41
2023/09/30 05:15:59;;;;;;;;;;;13.40;99.90;;;;;;5116521;28;19924;-42
2023/09/30 05:18:25;;;;;;;;;;;13.40;99.90;;;;;;5117159;28;19927;-41
2023/09/30 05:20:51;;;;;;;;;;;13.40;99.90;;;;;;5116747;28;19924;-42
2023/09/30 05:23:17;;;;;;;;;;;13.40;99.90;;;;;;5117553;28;19980;-42
2023/09/30 05:25:43;;;;;;;;;;;13.40;99.90;;;;;;5117255;27;20302;-41
2023/09/30 05:28:09;;;;;;;;;;;13.40;99.90;;;;;;5117212;28;19924;-42
2023/09/30 05:30:35;;;;;;;;;;;13.40;99.90;;;;;;5116990;28;19930;-43
2023/09/30 05:33:00;;;;;;;;;;;13.40;99.90;;;;;;5116829;28;20018;-41
2023/09/30 05:35:27;;;;;;;;;;;13.40;99.90;;;;;;5117113;28;19930;-41
2023/09/30 05:37:53;;;;;;;;;;;13.40;99.90;;;;;;5117163;28;19924;-42
2023/09/30 05:40:22;;;;;;;;;;;13.40;99.90;;;;;;5117087;28;19930;-42
2023/09/30 05:42:54;;;;;;;;;;;13.40;99.90;;;;;;5116377;28;19976;-41
2023/09/30 05:45:22;;;;;;;;;;;13.40;99.90;;;;;;5116745;28;19924;-42
2023/09/30 05:47:48;;;;;;;;;;;13.30;99.90;;;;;;5116935;28;19931;-42
2023/09/30 05:50:15;;;;;;;;;;;13.40;99.90;;;;;;5117024;28;19924;-42
2023/09/30 05:52:41;;;;;;;;;;;13.40;99.90;;;;;;5116583;28;20426;-41
2023/09/30 05:55:07;;;;;;;;;;;13.40;99.90;;;;;;5116520;28;19924;-41
2023/09/30 05:57:33;;;;;;;;;;;13.30;99.90;;;;;;5116708;28;19924;-42
2023/09/30 05:59:59;;;;;;;;;;;13.40;99.90;;;;;;5116622;28;19924;-42
2023/09/30 06:02:24;;;;;;;;;;;13.40;99.90;;;;;;5116687;28;19930;-41
2023/09/30 06:04:52;;;;;;;;;;;13.40;99.90;;;;;;5116245;28;19946;-41
2023/09/30 06:07:19;;;;;;;;;;;13.30;99.90;;;;;;5116567;28;19924;-42
2023/09/30 06:09:47;;;;;;;;;;;13.30;99.90;;;;;;5115595;28;19928;-42
2023/09/30 06:12:12;;;;;;;;;;;13.40;99.90;;;;;;5116469;28;19949;-41
2023/09/30 06:14:39;;;;;;;;;;;13.30;99.90;;;;;;5116140;28;20348;-41
2023/09/30 06:17:05;;;;;;;;;;;13.30;99.90;;;;;;5116473;28;20026;-41
2023/09/30 06:19:31;;;;;;;;;;;13.30;99.90;;;;;;5116330;28;19923;-41
2023/09/30 06:21:56;;;;;;;;;;;13.30;99.90;;;;;;5116338;28;19984;-42
2023/09/30 06:24:22;;;;;;;;;;;13.30;99.90;;;;;;5116187;28;19927;-41
2023/09/30 06:26:51;;;;;;;;;;;13.40;99.90;;;;;;5116088;28;19970;-41
2023/09/30 06:29:17;;;;;;;;;;;13.30;99.90;;;;;;5115914;28;19978;-42
2023/09/30 06:31:43;;;;;;;;;;;13.30;99.90;;;;;;5116103;28;19974;-42
2023/09/30 06:34:11;;;;;;;;;;;13.40;99.90;;;;;;5114711;28;19930;-41
2023/09/30 06:36:37;;;;;;;;;;;13.40;99.90;;;;;;5115820;28;19923;-42
2023/09/30 06:39:05;;;;;;;;;;;13.40;99.90;;;;;;5115830;28;19924;-42
2023/09/30 06:41:31;;;;;;;;;;;13.40;99.90;;;;;;5115579;28;19931;-42
2023/09/30 06:43:57;;;;;;;;;;;13.40;99.90;;;;;;5115568;28;19924;-42
2023/09/30 06:46:23;;;;;;;;;;;13.40;99.90;;;;;;5115635;28;19924;-42
2023/09/30 06:48:51;;;;;;;;;;;13.40;99.90;;;;;;5115747;28;19967;-42
2023/09/30 06:51:17;;;;;;;;;;;13.40;99.90;;;;;;5115661;28;20294;-41
2023/09/30 06:53:43;;;;;;;;;;;13.40;99.90;;;;;;5114431;28;19931;-42
2023/09/30 06:56:09;;;;;;;;;;;13.50;99.90;;;;;;5114618;28;20008;-42
2023/09/30 06:58:35;;;;;;;;;;;13.50;99.90;;;;;;5115657;28;20397;-42
2023/09/30 07:01:01;;;;;;;;;;;13.50;99.90;;;;;;5115443;28;19975;-42
2023/09/30 07:03:26;;;;;;;;;;;13.50;99.90;;;;;;5115535;28;19989;-41
2023/09/30 07:05:54;;;;;;;;;;;13.60;99.90;;;;;;5115334;28;20390;-42
2023/09/30 07:08:21;;;;;;;;;;;13.60;99.90;;;;;;5115344;27;20290;-42
2023/09/30 07:10:48;;;;;;;;;;;13.60;99.90;;;;;;5115246;28;19977;-41
2023/09/30 07:13:15;;;;;;;;;;;13.70;99.90;;;;;;5115250;28;19928;-41
2023/09/30 07:15:40;;;;;;;;;;;13.70;99.90;;;;;;5115303;28;19931;-42
2023/09/30 07:18:06;;;;;;;;;;;13.70;99.90;;;;;;5115119;28;19923;-42
2023/09/30 07:20:32;;;;;;;;;;;13.70;99.90;;;;;;5114959;28;19945;-42
2023/09/30 07:22:58;;;;;;;;;;;13.80;99.90;;;;;;5115087;28;19930;-42
2023/09/30 07:25:24;;;;;;;;;;;13.80;99.90;;;;;;5114866;28;20011;-42
2023/09/30 07:27:50;;;;;;;;;;;13.80;99.90;;;;;;5115012;28;19975;-42
2023/09/30 07:30:16;;;;;;;;;;;13.90;99.90;;;;;;5115003;28;19935;-42
2023/09/30 07:32:42;;;;;;;;;;;13.90;99.90;;;;;;5114602;28;19923;-42
2023/09/30 07:35:08;;;;;;;;;;;14.00;99.90;;;;;;5114786;28;19978;-42
2023/09/30 07:37:33;;;;;;;;;;;14.00;99.90;;;;;;5114641;27;19924;-42
2023/09/30 07:39:59;;;;;;;;;;;14.00;99.90;;;;;;5114781;27;19930;-42
2023/09/30 07:42:25;;;;;;;;;;;14.10;99.90;;;;;;5114813;28;20414;-42
2023/09/30 07:44:50;;;;;;;;;;;14.10;99.90;;;;;;5114716;28;19930;-42
2023/09/30 07:47:16;;;;;;;;;;;14.20;99.90;;;;;;5114756;28;19931;-42
2023/09/30 07:49:41;;;;;;;;;;;14.20;99.90;;;;;;5114577;28;19927;-42
2023/09/30 07:52:07;;;;;;;;;;;14.20;99.90;;;;;;5114531;28;19928;-41
2023/09/30 07:54:32;;;;;;;;;;;14.30;99.90;;;;;;5114370;28;20018;-42
2023/09/30 07:56:59;;;;;;;;;;;14.30;99.90;;;;;;5114791;28;19928;-42
2023/09/30 07:59:25;;;;;;;;;;;14.40;99.90;;;;;;5114330;28;20379;-42
2023/09/30 08:01:52;;;;;;;;;;;14.40;99.90;;;;;;5114551;28;19924;-42
2023/09/30 08:04:17;;;;;;;;;;;14.40;99.90;;;;;;5114453;28;19930;-42
2023/09/30 08:06:43;;;;;;;;;;;14.50;99.90;;;;;;5114125;28;20011;-42
2023/09/30 08:09:11;;;;;;;;;;;14.50;99.90;;;;;;5114412;28;19924;-42
2023/09/30 08:11:37;;;;;;;;;;;14.60;99.90;;;;;;5114508;28;19981;-42
2023/09/30 08:14:06;;;;;;;;;;;14.60;99.90;;;;;;5114388;28;19979;-44
2023/09/30 08:16:36;;;;;;;;;;;14.70;99.90;;;;;;5114538;28;19947;-42
2023/09/30 08:19:03;;;;;;;;;;;14.70;99.90;;;;;;5114465;28;19924;-42
2023/09/30 08:21:29;;;;;;;;;;;14.70;99.90;;;;;;5113386;28;19924;-42
2023/09/30 08:23:54;;;;;;;;;;;14.80;99.90;;;;;;5114143;28;19931;-42
2023/09/30 08:26:20;;;;;;;;;;;14.90;99.90;;;;;;5114573;28;19923;-41
2023/09/30 08:28:46;;;;;;;;;;;14.90;99.90;;;;;;5114084;28;19979;-42
2023/09/30 08:31:11;;;;;;;;;;;14.90;99.90;;;;;;5114367;28;19924;-42
2023/09/30 08:33:39;;;;;;;;;;;15.00;99.90;;;;;;5114344;28;20359;-41
2023/09/30 08:36:09;;;;;;;;;;;15.00;99.90;;;;;;5114338;28;20043;-42
2023/09/30 08:38:35;;;;;;;;;;;15.00;99.90;;;;;;5113999;28;19969;-42
2023/09/30 08:41:02;;;;;;;;;;;15.10;99.90;;;;;;5114171;28;19930;-42
2023/09/30 08:43:30;;;;;;;;;;;15.10;99.90;;;;;;5114183;28;19979;-43
2023/09/30 08:45:56;;;;;;;;;;;15.20;99.90;;;;;;5114215;28;19928;-42
2023/09/30 08:48:23;;;;;;;;;;;15.20;99.90;;;;;;5114144;28;20319;-42
2023/09/30 08:50:49;;;;;;;;;;;15.30;99.90;;;;;;5113975;28;19924;-42
2023/09/30 08:53:16;;;;;;;;;;;15.30;99.90;;;;;;5113879;28;19932;-42
2023/09/30 08:55:43;;;;;;;;;;;15.40;99.90;;;;;;5113999;28;19930;-42
2023/09/30 08:58:10;;;;;;;;;;;15.40;99.90;;;;;;5113993;28;20000;-41
2023/09/30 09:00:36;;;;;;;;;;;15.40;99.90;;;;;;5114151;28;20444;-42
2023/09/30 09:03:03;;;;;;;;;;;15.50;99.90;;;;;;5113944;28;19949;-42
2023/09/30 09:05:29;;;;;;;;;;;15.50;99.90;;;;;;5113865;28;19969;-42
2023/09/30 09:07:54;;;;;;;;;;;15.60;99.90;;;;;;5113810;28;20324;-42
2023/09/30 09:10:20;;;;;;;;;;;15.70;99.90;;;;;;5113938;28;20022;-42
2023/09/30 09:12:54;;;;;;;;;;;15.70;99.90;;;;;;5113881;28;19935;-42
2023/09/30 09:15:21;;;;;;;;;;;15.70;99.90;;;;;;5113870;28;19924;-42
2023/09/30 09:17:47;;;;;;;;;;;15.90;99.90;;;;;;5113773;28;19924;-42
2023/09/30 09:20:22;;;;;;;;;;;15.90;99.90;;;;;;5117035;28;19924;-41
2023/09/30 09:22:50;;;;;;;;;;;15.90;99.90;;;;;;5117477;28;20417;-42
2023/09/30 09:25:16;;;;;;;;;;;16.00;99.90;;;;;;5117474;28;19935;-42
2023/09/30 09:27:42;;;;;;;;;;;16.00;99.90;;;;;;5117354;28;19925;-42
2023/09/30 09:30:15;;;;;;;;;;;16.10;99.90;;;;;;5117292;27;19968;-42
2023/09/30 09:32:51;;;;;;;;;;;16.10;99.90;;;;;;5116975;28;19924;-42
2023/09/30 09:35:19;;;;;;;;;;;16.20;99.90;;;;;;5117231;28;20450;-42
2023/09/30 09:37:53;;;;;;;;;;;16.20;99.90;;;;;;5117241;28;19924;-42
2023/09/30 09:40:22;;;;;;;;;;;16.30;99.90;;;;;;5117157;28;19924;-42
2023/09/30 09:42:50;;;;;;;;;;;16.40;99.90;;;;;;5115817;28;19930;-42
2023/09/30 09:45:16;;;;;;;;;;;16.40;99.90;;;;;;5116710;28;19957;-45
2023/09/30 09:47:42;;;;;;;;;;;16.50;99.90;;;;;;5117053;28;19931;-42
2023/09/30 09:50:08;;;;;;;;;;;16.50;99.90;;;;;;5116934;28;19924;-42
2023/09/30 09:52:35;;;;;;;;;;;16.60;99.90;;;;;;5116865;28;19923;-42
2023/09/30 09:55:01;;;;;;;;;;;16.70;99.90;;;;;;5116784;28;19924;-42
2023/09/30 09:57:27;;;;;;;;;;;16.70;99.90;;;;;;5116499;27;20324;-42
2023/09/30 09:59:53;;;;;;;;;;;16.80;99.90;;;;;;5116625;28;19924;-41
2023/09/30 10:02:19;;;;;;;;;;;16.90;99.90;;;;;;5116745;28;19976;-42
2023/09/30 10:04:45;;;;;;;;;;;16.90;99.90;;;;;;5116788;28;19924;-43
2023/09/30 10:07:14;;;;;;;;;;;17.00;99.90;;;;;;5116524;28;20328;-42
2023/09/30 10:09:41;;;;;;;;;;;17.10;99.90;;;;;;5116609;28;19984;-43
2023/09/30 10:12:08;;;;;;;;;;;17.10;99.90;;;;;;5116392;27;20294;-42
2023/09/30 10:14:35;;;;;;;;;;;17.20;99.90;;;;;;5116240;28;19931;-42
2023/09/30 10:17:03;;;;;;;;;;;17.20;99.90;;;;;;5115488;28;19924;-43
2023/09/30 10:19:30;;;;;;;;;;;17.10;99.90;;;;;;5116350;28;19923;-43
2023/09/30 10:22:15;;;;;;;;;;;17.20;99.90;;;;;;5115173;28;19928;-43
2023/09/30 10:24:40;;;;;;;;;;;17.30;99.90;;;;;;5116142;28;20335;-42
2023/09/30 10:27:24;;;;;;;;;;;17.40;99.90;;;;;;5116168;28;19924;-42
2023/09/30 10:30:02;;;;;;;;;;;17.40;99.90;;;;;;5115864;28;19924;-42
2023/09/30 10:32:46;;;;;;;;;;;17.40;99.90;;;;;;5115938;28;19924;-42
2023/09/30 10:35:12;;;;;;;;;;;17.40;99.90;;;;;;5115758;28;20450;-44
2023/09/30 10:37:38;;;;;;;;;;;17.30;99.90;;;;;;5115870;28;19975;-41
2023/09/30 10:40:04;;;;;;;;;;;17.30;99.90;;;;;;5114772;28;19973;-42
2023/09/30 10:42:45;;;;;;;;;;;17.20;99.90;;;;;;5115896;28;19967;-42
2023/09/30 10:45:29;;;;;;;;;;;17.10;99.90;;;;;;5115844;27;19924;-42
2023/09/30 10:47:55;;;;;;;;;;;17.10;99.90;;;;;;5115464;28;20398;-42
2023/09/30 10:50:54;;;;;;;;;;;17.10;99.90;;;;;;5115783;28;20061;-43
2023/09/30 10:53:20;;;;;;;;;;;17.10;99.90;;;;;;5103528;28;20375;-42
2023/09/30 10:55:46;;;;;;;;;;;17.20;99.90;;;;;;5115630;28;19972;-42
2023/09/30 10:58:15;;;;;;;;;;;17.30;99.90;;;;;;5115467;28;19923;-42
2023/09/30 11:00:51;;;;;;;;;;;17.40;99.90;;;;;;5114279;28;19930;-42
2023/09/30 11:03:19;;;;;;;;;;;17.40;99.90;;;;;;5115583;28;20355;-42
2023/09/30 11:05:47;;;;;;;;;;;17.50;99.90;;;;;;5115346;28;19924;-42
2023/09/30 11:08:14;;;;;;;;;;;17.60;99.90;;;;;;5115459;28;20314;-42
2023/09/30 11:10:46;;;;;;;;;;;17.70;99.90;;;;;;5115216;28;19924;-42
2023/09/30 11:13:12;;;;;;;;;;;17.60;99.90;;;;;;5115339;28;19924;-42
2023/09/30 11:15:38;;;;;;;;;;;17.50;99.90;;;;;;5115362;28;19923;-43
2023/09/30 11:18:16;;;;;;;;;;;17.50;99.90;;;;;;5114346;28;20393;-42
2023/09/30 11:20:42;;;;;;;;;;;17.40;99.90;;;;;;5115234;28;19977;-44
2023/09/30 11:23:08;;;;;;;;;;;17.30;99.90;;;;;;5115017;28;19923;-42
2023/09/30 11:25:35;;;;;;;;;;;17.20;99.90;;;;;;5114855;28;20336;-43
2023/09/30 11:28:17;;;;;;;;;;;17.20;99.90;;;;;;5115115;28;19976;-42
2023/09/30 11:30:54;;;;;;;;;;;17.10;99.90;;;;;;5114960;28;19931;-43
2023/09/30 11:33:22;;;;;;;;;;;17.10;99.90;;;;;;5114682;28;19986;-43
2023/09/30 11:36:00;;;;;;;;;;;17.00;99.90;;;;;;5113974;28;19975;-41
2023/09/30 11:38:27;;;;;;;;;;;17.00;99.90;;;;;;5114922;28;19928;-42
2023/09/30 11:40:59;;;;;;;;;;;17.00;99.90;;;;;;5114335;28;20076;-42
2023/09/30 11:43:25;;;;;;;;;;;17.00;99.90;;;;;;5114984;28;20368;-42
2023/09/30 11:45:51;;;;;;;;;;;17.00;99.90;;;;;;5114361;28;19926;-42
2023/09/30 11:48:19;;;;;;;;;;;17.00;99.90;;;;;;5114589;28;19924;-42
2023/09/30 11:50:52;;;;;;;;;;;17.00;99.90;;;;;;5114774;28;19924;-41
2023/09/30 11:53:20;;;;;;;;;;;17.00;99.90;;;;;;5114740;28;19931;-43
2023/09/30 11:55:46;;;;;;;;;;;17.00;99.90;;;;;;5114613;28;19981;-42
2023/09/30 11:58:15;;;;;;;;;;;17.00;99.90;;;;;;5114652;28;20329;-42
2023/09/30 12:00:41;;;;;;;;;;;17.00;99.90;;;;;;5114722;28;19975;-41
2023/09/30 12:03:06;;;;;;;;;;;17.00;99.90;;;;;;5130723;27;19986;-42
2023/09/30 12:05:32;;;;;;;;;;;17.00;99.90;;;;;;5113905;28;19924;-42
2023/09/30 12:07:58;;;;;;;;;;;17.00;99.90;;;;;;5114536;28;19968;-42
2023/09/30 12:10:23;;;;;;;;;;;17.00;99.90;;;;;;5114583;28;19931;-42
2023/09/30 12:12:49;;;;;;;;;;;17.00;99.90;;;;;;5114449;28;20275;-42
2023/09/30 12:15:15;;;;;;;;;;;17.00;99.90;;;;;;5114517;28;19934;-42
2023/09/30 12:17:40;;;;;;;;;;;17.00;99.90;;;;;;5114277;28;20263;-42
2023/09/30 12:20:06;;;;;;;;;;;17.00;99.90;;;;;;5114964;28;19953;-42
2023/09/30 12:22:32;;;;;;;;;;;17.00;99.90;;;;;;5114417;28;20362;-43
2023/09/30 12:24:58;;;;;;;;;;;17.00;99.90;;;;;;5113199;28;19931;-42
2023/09/30 12:27:24;;;;;;;;;;;17.10;99.90;;;;;;5114336;28;19927;-42
2023/09/30 12:29:50;;;;;;;;;;;17.10;99.90;;;;;;5113351;28;19926;-43
2023/09/30 12:32:15;;;;;;;;;;;17.10;99.90;;;;;;5113968;28;19973;-42
2023/09/30 12:34:41;;;;;;;;;;;17.20;99.90;;;;;;5114248;28;19927;-42
2023/09/30 12:37:07;;;;;;;;;;;17.20;99.90;;;;;;5114290;28;20018;-42
2023/09/30 12:39:33;;;;;;;;;;;17.30;99.90;;;;;;5114171;28;20011;-42
2023/09/30 12:41:58;;;;;;;;;;;17.30;99.90;;;;;;5113316;28;19924;-42
2023/09/30 12:44:24;;;;;;;;;;;17.40;99.90;;;;;;5113987;28;19931;-43
2023/09/30 12:46:50;;;;;;;;;;;17.40;99.90;;;;;;5114030;28;20011;-42
2023/09/30 12:49:15;;;;;;;;;;;17.50;99.90;;;;;;5114227;28;19980;-42
2023/09/30 12:51:41;;;;;;;;;;;17.50;99.90;;;;;;5114339;28;19924;-43
2023/09/30 12:54:07;;;;;;;;;;;17.50;99.90;;;;;;5116547;28;20259;-42
2023/09/30 12:56:33;;;;;;;;;;;17.60;99.90;;;;;;5117146;28;19924;-42
2023/09/30 12:58:59;;;;;;;;;;;17.70;99.90;;;;;;5117934;28;19949;-43
2023/09/30 13:01:25;;;;;;;;;;;17.70;99.90;;;;;;5117888;28;19945;-43
2023/09/30 13:03:51;;;;;;;;;;;17.70;99.90;;;;;;5117844;28;19928;-42
2023/09/30 13:06:17;;;;;;;;;;;17.80;99.90;;;;;;5118205;28;19930;-42
2023/09/30 13:08:43;;;;;;;;;;;17.80;99.90;;;;;;5118108;28;19924;-42
2023/09/30 13:11:11;;;;;;;;;;;17.70;99.90;;;;;;5117668;28;19930;-44
2023/09/30 13:13:37;;;;;;;;;;;17.70;99.90;;;;;;5117761;28;19924;-42
2023/09/30 13:16:07;;;;;;;;;;;17.70;99.90;;;;;;5117466;28;19924;-42
2023/09/30 13:18:33;;;;;;;;;;;17.70;99.90;;;;;;5117874;28;19946;-42
2023/09/30 13:20:59;;;;;;;;;;;17.70;99.90;;;;;;5117548;28;19976;-43
2023/09/30 13:23:26;;;;;;;;;;;17.70;99.90;;;;;;5117414;28;20018;-42
2023/09/30 13:25:52;;;;;;;;;;;17.70;99.90;;;;;;5117662;28;20275;-42
2023/09/30 13:28:17;;;;;;;;;;;17.80;99.90;;;;;;5116435;28;19931;-42
2023/09/30 13:30:45;;;;;;;;;;;17.70;99.90;;;;;;5116121;28;19931;-42
2023/09/30 13:33:11;;;;;;;;;;;17.80;99.90;;;;;;5117280;28;19924;-42
2023/09/30 13:35:36;;;;;;;;;;;17.80;99.90;;;;;;5117185;28;19946;-42
2023/09/30 13:38:03;;;;;;;;;;;17.80;99.90;;;;;;5117103;28;19923;-42
2023/09/30 13:40:29;;;;;;;;;;;17.80;99.90;;;;;;5117158;28;19974;-43
2023/09/30 13:42:54;;;;;;;;;;;17.80;99.90;;;;;;5116943;28;20017;-42
2023/09/30 13:45:20;;;;;;;;;;;17.80;99.90;;;;;;5116869;28;19931;-42
2023/09/30 13:47:45;;;;;;;;;;;17.80;99.90;;;;;;5116146;28;20338;-42
2023/09/30 13:50:11;;;;;;;;;;;17.80;99.90;;;;;;5116963;28;19931;-42
2023/09/30 13:52:37;;;;;;;;;;;17.80;99.90;;;;;;5116974;28;19924;-42
2023/09/30 13:55:03;;;;;;;;;;;17.80;99.90;;;;;;5115982;28;19946;-42
2023/09/30 13:57:28;;;;;;;;;;;17.80;99.90;;;;;;5116979;28;19981;-42
2023/09/30 13:59:54;;;;;;;;;;;17.90;99.90;;;;;;5116701;28;19924;-45
2023/09/30 14:02:19;;;;;;;;;;;17.90;99.90;;;;;;5116753;28;19924;-42
2023/09/30 14:04:45;;;;;;;;;;;17.90;99.90;;;;;;5116427;28;19927;-42
2023/09/30 14:07:11;;;;;;;;;;;18.00;99.90;;;;;;5116610;28;19931;-42
2023/09/30 14:09:37;;;;;;;;;;;18.00;99.90;;;;;;5115531;28;19930;-42
2023/09/30 14:12:07;;;;;;;;;;;18.10;99.90;;;;;;5116495;28;19924;-43
2023/09/30 14:14:34;;;;;;;;;;;18.10;99.90;;;;;;5116356;28;19924;-43